createdAt,value
2022-12-16T00:01:28.334Z,45.53
2022-12-16T00:03:58.575Z,49.23
2022-12-16T00:06:30.753Z,58.03
2022-12-16T00:08:59.418Z,46.83
2022-12-16T00:11:27.701Z,47.23
2022-12-16T00:13:55.522Z,45.30
2022-12-16T00:16:23.490Z,53.23
2022-12-16T00:18:52.702Z,49.97
2022-12-16T00:21:20.925Z,46.20
2022-12-16T00:23:49.164Z,47.20
2022-12-16T00:26:16.987Z,51.77
2022-12-16T00:28:44.797Z,49.43
2022-12-16T00:31:13.031Z,50.83
2022-12-16T00:33:41.023Z,50.57
2022-12-16T00:36:10.935Z,50.47
2022-12-16T00:38:39.280Z,48.73
2022-12-16T00:41:08.075Z,52.77
2022-12-16T00:43:36.217Z,49.57
2022-12-16T00:46:04.311Z,53.77
2022-12-16T00:48:32.160Z,49.93
2022-12-16T00:50:59.991Z,50.37
2022-12-16T00:53:29.484Z,44.23
2022-12-16T00:56:03.952Z,45.83
2022-12-16T00:58:31.785Z,50.67
2022-12-16T01:00:59.705Z,47.73
2022-12-16T01:03:27.979Z,46.27
2022-12-16T01:05:55.828Z,47.87
2022-12-16T01:08:24.071Z,49.20
2022-12-16T01:10:55.378Z,51.47
2022-12-16T01:13:24.239Z,53.40
2022-12-16T01:15:52.212Z,53.57
2022-12-16T01:18:20.578Z,54.13
2022-12-16T01:20:48.418Z,51.10
2022-12-16T01:23:16.237Z,49.93
2022-12-16T01:25:44.055Z,48.97
2022-12-16T01:28:13.193Z,49.97
2022-12-16T01:30:41.032Z,51.67
2022-12-16T01:33:08.820Z,50.37
2022-12-16T01:35:55.174Z,53.50
2022-12-16T01:38:24.128Z,53.27
2022-12-16T01:40:52.573Z,49.50
2022-12-16T01:43:28.061Z,47.20
2022-12-16T01:46:00.190Z,49.27
2022-12-16T01:48:36.708Z,53.17
2022-12-16T01:51:08.118Z,52.43
2022-12-16T01:53:39.041Z,48.57
2022-12-16T01:56:07.630Z,48.50
2022-12-16T01:58:40.489Z,51.33
2022-12-16T02:01:09.031Z,46.83
2022-12-16T02:03:38.267Z,49.77
2022-12-16T02:06:07.992Z,46.03
2022-12-16T02:08:36.445Z,49.30
2022-12-16T02:11:37.738Z,46.93
2022-12-16T02:14:31.939Z,44.50
2022-12-16T02:17:04.787Z,53.43
2022-12-16T02:20:03.840Z,45.23
2022-12-16T02:22:43.820Z,49.37
2022-12-16T02:25:37.983Z,48.00
2022-12-16T02:28:11.352Z,48.90
2022-12-16T02:30:57.255Z,51.00
2022-12-16T02:33:36.721Z,49.07
2022-12-16T02:36:13.149Z,46.50
2022-12-16T02:38:53.382Z,47.87
2022-12-16T02:41:31.327Z,41.30
2022-12-16T02:44:03.762Z,48.13
2022-12-16T02:46:34.771Z,48.13
2022-12-16T02:49:07.644Z,46.40
2022-12-16T02:51:37.443Z,47.60
2022-12-16T02:54:06.633Z,46.47
2022-12-16T02:56:48.534Z,42.30
2022-12-16T02:59:21.585Z,47.03
2022-12-16T03:01:56.806Z,46.47
2022-12-16T03:04:30.971Z,48.50
2022-12-16T03:07:01.590Z,48.33
2022-12-16T03:09:34.645Z,50.23
2022-12-16T03:12:06.851Z,50.43
2022-12-16T03:14:37.798Z,41.73
2022-12-16T03:17:08.520Z,48.73
2022-12-16T03:19:39.215Z,46.87
2022-12-16T03:22:11.588Z,47.73
2022-12-16T03:24:40.407Z,44.33
2022-12-16T03:27:15.125Z,47.47
2022-12-16T03:29:51.520Z,46.30
2022-12-16T03:32:28.138Z,52.37
2022-12-16T03:35:01.926Z,47.77
2022-12-16T03:37:34.140Z,52.60
2022-12-16T03:40:05.124Z,45.73
2022-12-16T03:42:34.093Z,54.00
2022-12-16T03:45:02.066Z,46.77
2022-12-16T03:47:31.431Z,49.70
2022-12-16T03:49:59.277Z,43.97
2022-12-16T03:52:27.085Z,47.63
2022-12-16T03:54:55.227Z,45.50
2022-12-16T03:57:23.040Z,44.90
2022-12-16T03:59:50.875Z,46.97
2022-12-16T04:02:18.847Z,39.73
2022-12-16T04:04:48.209Z,40.43
2022-12-16T04:07:22.000Z,42.23
2022-12-16T04:09:52.542Z,44.13
2022-12-16T04:12:38.525Z,41.97
2022-12-16T04:15:25.421Z,42.63
2022-12-16T04:18:11.220Z,38.87
2022-12-16T04:21:01.309Z,41.10
2022-12-16T04:23:49.018Z,40.63
2022-12-16T04:26:17.355Z,45.37
2022-12-16T04:28:45.477Z,38.97
2022-12-16T04:31:13.366Z,41.60
2022-12-16T04:33:59.813Z,40.27
2022-12-16T04:36:46.587Z,43.10
2022-12-16T04:39:31.976Z,41.40
2022-12-16T04:42:17.509Z,41.57
2022-12-16T04:45:02.948Z,38.90
2022-12-16T04:47:51.428Z,42.50
2022-12-16T04:50:39.377Z,41.73
2022-12-16T04:53:26.164Z,41.40
2022-12-16T04:56:11.583Z,38.27
2022-12-16T04:58:56.999Z,37.10
2022-12-16T05:01:42.495Z,35.17
2022-12-16T05:04:27.763Z,37.47
2022-12-16T05:07:13.143Z,40.13
2022-12-16T05:09:59.903Z,36.70
2022-12-16T05:12:45.492Z,44.50
2022-12-16T05:15:30.832Z,39.87
2022-12-16T05:18:16.352Z,36.47
2022-12-16T05:21:01.761Z,42.83
2022-12-16T05:23:47.219Z,42.30
2022-12-16T05:26:34.022Z,36.60
2022-12-16T05:29:19.543Z,34.30
2022-12-16T05:32:04.903Z,39.00
2022-12-16T05:34:50.300Z,41.93
2022-12-16T05:37:32.088Z,37.10
2022-12-16T05:40:17.497Z,39.80
2022-12-16T05:43:06.181Z,37.70
2022-12-16T05:45:51.910Z,37.43
2022-12-16T05:48:37.447Z,38.80
2022-12-16T05:51:23.050Z,37.47
2022-12-16T05:54:08.590Z,39.10
2022-12-16T05:56:50.332Z,36.50
2022-12-16T05:59:37.203Z,39.67
2022-12-16T06:02:22.740Z,33.90
2022-12-16T06:05:07.988Z,36.90
2022-12-16T06:07:53.420Z,39.03
2022-12-16T06:10:38.934Z,38.23
2022-12-16T06:13:24.390Z,36.20
2022-12-16T06:16:11.176Z,37.83
2022-12-16T06:18:56.507Z,36.90
2022-12-16T06:21:42.511Z,37.97
2022-12-16T06:24:28.087Z,40.40
2022-12-16T06:27:13.507Z,41.13
2022-12-16T06:29:58.776Z,40.40
2022-12-16T06:32:45.571Z,34.73
2022-12-16T06:35:31.058Z,39.63
2022-12-16T06:38:16.524Z,41.23
2022-12-16T06:41:02.080Z,42.10
2022-12-16T06:43:47.307Z,38.37
2022-12-16T06:46:32.941Z,34.13
2022-12-16T06:49:20.054Z,34.97
2022-12-16T06:52:05.548Z,35.53
2022-12-16T06:54:50.985Z,36.03
2022-12-16T06:57:36.329Z,41.00
2022-12-16T07:00:22.692Z,37.20
2022-12-16T07:03:08.320Z,37.93
2022-12-16T07:05:55.009Z,36.97
2022-12-16T07:08:40.514Z,32.47
2022-12-16T07:11:25.992Z,35.60
2022-12-16T07:14:11.348Z,31.43
2022-12-16T07:16:56.973Z,37.10
2022-12-16T07:19:42.461Z,37.53
2022-12-16T07:22:29.260Z,33.27
2022-12-16T07:25:14.830Z,35.10
2022-12-16T07:28:04.704Z,36.93
2022-12-16T07:30:50.185Z,38.73
2022-12-16T07:33:35.548Z,45.40
2022-12-16T07:36:21.279Z,37.90
2022-12-16T07:39:08.063Z,40.70
2022-12-16T07:41:54.084Z,35.37
2022-12-16T07:44:39.540Z,35.10
2022-12-16T07:47:36.591Z,35.37
2022-12-16T07:50:22.293Z,38.00
2022-12-16T07:53:12.672Z,43.90
2022-12-16T07:55:59.502Z,38.17
2022-12-16T07:58:44.927Z,40.47
2022-12-16T08:01:30.657Z,43.30
2022-12-16T08:04:16.160Z,40.00
2022-12-16T08:07:01.782Z,40.03
2022-12-16T08:09:46.965Z,39.20
2022-12-16T08:12:33.745Z,39.73
2022-12-16T08:15:19.346Z,38.17
2022-12-16T08:18:08.540Z,39.93
2022-12-16T08:20:55.321Z,36.87
2022-12-16T08:23:41.328Z,40.00
2022-12-16T08:26:26.757Z,38.47
2022-12-16T08:29:42.732Z,43.07
2022-12-16T08:32:18.821Z,40.20
2022-12-16T08:35:04.395Z,45.63
2022-12-16T08:37:49.993Z,38.73
2022-12-16T08:40:37.036Z,42.20
2022-12-16T08:43:22.935Z,41.87
2022-12-16T08:46:12.539Z,44.70
2022-12-16T08:48:57.954Z,39.83
2022-12-16T08:51:43.525Z,41.17
2022-12-16T08:54:28.943Z,36.47
2022-12-16T08:57:14.413Z,32.17
2022-12-16T08:59:59.893Z,35.03
2022-12-16T09:02:47.250Z,40.70
2022-12-16T09:05:32.636Z,32.93
2022-12-16T09:08:19.044Z,32.60
2022-12-16T09:11:04.691Z,33.20
2022-12-16T09:14:01.516Z,33.40
2022-12-16T09:16:55.277Z,30.43
2022-12-16T09:19:42.744Z,33.67
2022-12-16T09:22:28.281Z,33.50
2022-12-16T09:25:13.675Z,30.60
2022-12-16T09:27:59.184Z,35.17
2022-12-16T09:30:44.572Z,41.30
2022-12-16T09:33:30.461Z,34.80
2022-12-16T09:36:17.368Z,30.50
2022-12-16T09:39:02.764Z,30.23
2022-12-16T09:41:59.757Z,29.03
2022-12-16T09:45:01.259Z,30.33
2022-12-16T09:48:10.963Z,26.87
2022-12-16T09:50:58.538Z,28.80
2022-12-16T09:53:47.150Z,29.23
2022-12-16T09:56:35.546Z,31.20
2022-12-16T09:59:26.140Z,24.00
2022-12-16T10:02:24.308Z,26.87
2022-12-16T10:05:11.031Z,26.97
2022-12-16T10:08:05.443Z,26.57
2022-12-16T10:10:59.616Z,27.93
2022-12-16T10:13:54.244Z,24.70
2022-12-16T10:16:47.571Z,26.07
2022-12-16T10:19:49.624Z,26.87
2022-12-16T10:22:43.826Z,26.23
2022-12-16T10:25:35.457Z,24.53
2022-12-16T10:28:31.997Z,27.90
2022-12-16T10:31:18.182Z,27.03
2022-12-16T10:34:07.608Z,33.00
2022-12-16T10:36:54.553Z,26.77
2022-12-16T10:39:43.880Z,27.87
2022-12-16T10:42:39.091Z,27.03
2022-12-16T10:45:39.712Z,24.60
2022-12-16T10:48:27.212Z,24.87
2022-12-16T10:51:12.568Z,27.37
2022-12-16T10:53:57.894Z,28.27
2022-12-16T10:57:09.904Z,29.17
2022-12-16T10:59:57.903Z,29.63
2022-12-16T11:02:46.174Z,28.10
2022-12-16T11:05:51.918Z,25.70
2022-12-16T11:08:44.064Z,30.23
2022-12-16T11:11:38.532Z,28.47
2022-12-16T11:14:37.117Z,28.57
2022-12-16T11:17:37.868Z,27.67
2022-12-16T11:20:32.143Z,28.00
2022-12-16T11:23:36.696Z,28.20
2022-12-16T11:26:33.086Z,31.70
2022-12-16T11:29:29.346Z,29.80
2022-12-16T11:32:19.140Z,29.33
2022-12-16T11:35:10.439Z,36.27
2022-12-16T11:37:58.549Z,33.50
2022-12-16T11:40:44.598Z,32.30
2022-12-16T11:43:32.738Z,29.23
2022-12-16T11:46:22.479Z,30.37
2022-12-16T11:49:11.074Z,36.27
2022-12-16T11:52:20.980Z,31.03
2022-12-16T11:55:15.367Z,26.53
2022-12-16T11:58:06.203Z,36.80
2022-12-16T12:00:58.268Z,29.97
2022-12-16T12:03:46.436Z,29.60
2022-12-16T12:06:43.167Z,28.33
2022-12-16T12:09:34.865Z,30.00
2022-12-16T12:12:33.721Z,35.17
2022-12-16T12:15:29.191Z,45.50
2022-12-16T12:18:20.594Z,44.50
2022-12-16T12:21:16.658Z,43.43
2022-12-16T12:24:10.031Z,42.20
2022-12-16T12:27:02.032Z,41.03
2022-12-16T12:29:52.062Z,46.93
2022-12-16T12:32:44.606Z,33.37
2022-12-16T12:35:46.751Z,32.63
2022-12-16T12:38:37.235Z,36.50
2022-12-16T12:41:30.831Z,35.60
2022-12-16T12:44:24.919Z,33.87
2022-12-16T12:47:17.312Z,28.67
2022-12-16T12:50:08.362Z,35.50
2022-12-16T12:53:18.073Z,32.10
2022-12-16T12:56:13.755Z,33.73
2022-12-16T12:59:12.258Z,31.93
2022-12-16T13:02:01.297Z,36.67
2022-12-16T13:04:59.128Z,34.73
2022-12-16T13:07:44.537Z,36.53
2022-12-16T13:10:32.395Z,31.33
2022-12-16T13:13:49.841Z,32.60
2022-12-16T13:17:25.809Z,35.00
2022-12-16T13:20:14.718Z,33.50
2022-12-16T13:23:01.749Z,41.63
2022-12-16T13:25:59.274Z,41.60
2022-12-16T13:28:48.071Z,37.13
2022-12-16T13:31:33.989Z,38.50
2022-12-16T13:34:24.957Z,36.23
2022-12-16T13:37:23.599Z,34.40
2022-12-16T13:40:22.935Z,40.83
2022-12-16T13:43:13.402Z,35.67
2022-12-16T13:46:01.056Z,37.20
2022-12-16T13:48:55.250Z,33.60
2022-12-16T13:52:26.286Z,39.47
2022-12-16T13:55:25.098Z,33.23
2022-12-16T13:58:18.547Z,33.97
2022-12-16T14:01:16.012Z,27.40
2022-12-16T14:04:05.994Z,33.70
2022-12-16T14:06:55.455Z,34.13
2022-12-16T14:09:54.620Z,32.83
2022-12-16T14:13:02.402Z,33.83
2022-12-16T14:15:54.365Z,33.23
2022-12-16T14:18:50.424Z,27.50
2022-12-16T14:21:42.552Z,31.53
2022-12-16T14:24:36.503Z,34.90
2022-12-16T14:27:29.805Z,27.87
2022-12-16T14:30:17.188Z,32.67
2022-12-16T14:33:02.661Z,31.50
2022-12-16T14:35:48.127Z,32.13
2022-12-16T14:38:44.587Z,29.93
2022-12-16T14:41:31.553Z,28.20
2022-12-16T14:44:17.387Z,33.50
2022-12-16T14:47:09.085Z,31.30
2022-12-16T14:49:54.412Z,34.13
2022-12-16T14:52:41.941Z,33.80
2022-12-16T14:55:34.460Z,29.00
2022-12-16T14:58:25.223Z,36.00
2022-12-16T15:01:15.969Z,30.27
2022-12-16T15:04:05.267Z,37.33
2022-12-16T15:06:56.341Z,30.20
2022-12-16T15:09:46.901Z,28.37
2022-12-16T15:12:34.311Z,29.87
2022-12-16T15:15:23.601Z,33.97
2022-12-16T15:18:11.224Z,30.90
2022-12-16T15:21:06.099Z,31.80
2022-12-16T15:23:52.957Z,30.90
2022-12-16T15:26:39.566Z,30.20
2022-12-16T15:29:46.572Z,30.00
2022-12-16T15:32:48.907Z,30.50
2022-12-16T15:35:45.139Z,28.07
2022-12-16T15:38:42.110Z,26.13
2022-12-16T15:41:39.560Z,34.53
2022-12-16T15:44:40.528Z,25.80
2022-12-16T15:47:39.066Z,31.90
2022-12-16T15:50:25.616Z,26.30
2022-12-16T15:53:11.084Z,27.27
2022-12-16T15:56:04.659Z,33.00
2022-12-16T15:58:52.411Z,32.47
2022-12-16T16:01:40.324Z,28.43
2022-12-16T16:04:37.960Z,27.47
2022-12-16T16:07:31.985Z,24.93
2022-12-16T16:10:27.050Z,27.70
2022-12-16T16:13:13.793Z,24.93
2022-12-16T16:15:59.497Z,27.77
2022-12-16T16:18:44.697Z,26.07
2022-12-16T16:21:30.387Z,31.93
2022-12-16T16:24:18.107Z,31.60
2022-12-16T16:27:03.652Z,30.53
2022-12-16T16:29:50.265Z,33.20
2022-12-16T16:32:35.724Z,26.13
2022-12-16T16:35:21.265Z,34.30
2022-12-16T16:38:06.910Z,31.23
2022-12-16T16:40:54.835Z,29.73
2022-12-16T16:43:41.281Z,30.37
2022-12-16T16:46:51.424Z,31.50
2022-12-16T16:49:40.856Z,28.60
2022-12-16T16:52:30.857Z,33.27
2022-12-16T16:55:16.469Z,27.97
2022-12-16T16:58:02.316Z,40.57
2022-12-16T17:00:47.691Z,36.73
2022-12-16T17:03:34.938Z,34.70
2022-12-16T17:06:20.577Z,38.70
2022-12-16T17:09:06.316Z,45.57
2022-12-16T17:11:52.771Z,42.90
2022-12-16T17:14:39.718Z,40.87
2022-12-16T17:17:26.066Z,37.37
2022-12-16T17:20:12.860Z,37.77
2022-12-16T17:22:58.458Z,30.53
2022-12-16T17:25:44.246Z,28.30
2022-12-16T17:28:30.341Z,36.97
2022-12-16T17:31:15.971Z,31.87
2022-12-16T17:34:01.150Z,29.57
2022-12-16T17:36:47.945Z,34.00
2022-12-16T17:39:33.470Z,32.67
2022-12-16T17:42:18.748Z,34.37
2022-12-16T17:45:04.196Z,33.83
2022-12-16T17:47:49.594Z,47.30
2022-12-16T17:50:35.027Z,37.10
2022-12-16T17:53:21.809Z,31.93
2022-12-16T17:56:07.132Z,33.40
2022-12-16T17:58:54.086Z,34.03
2022-12-16T18:01:40.188Z,40.53
2022-12-16T18:04:26.369Z,36.13
2022-12-16T18:07:12.148Z,34.17
2022-12-16T18:09:59.089Z,35.40
2022-12-16T18:12:45.226Z,37.97
2022-12-16T18:15:30.779Z,38.37
2022-12-16T18:18:16.085Z,28.17
2022-12-16T18:21:01.588Z,32.13
2022-12-16T18:23:48.391Z,42.77
2022-12-16T18:26:36.033Z,41.00
2022-12-16T18:29:21.540Z,39.10
2022-12-16T18:32:18.717Z,34.73
2022-12-16T18:35:04.132Z,35.57
2022-12-16T18:37:49.552Z,35.70
2022-12-16T18:40:35.059Z,39.23
2022-12-16T18:43:21.981Z,32.43
2022-12-16T18:46:11.076Z,41.80
2022-12-16T18:48:56.385Z,39.33
2022-12-16T18:51:41.869Z,44.03
2022-12-16T18:54:27.208Z,44.60
2022-12-16T18:57:12.704Z,37.27
2022-12-16T18:59:59.447Z,43.57
2022-12-16T19:02:56.494Z,40.37
2022-12-16T19:05:42.081Z,38.80
2022-12-16T19:08:27.614Z,49.13
2022-12-16T19:11:14.977Z,39.00
2022-12-16T19:14:00.354Z,44.60
2022-12-16T19:16:47.267Z,42.23
2022-12-16T19:19:32.654Z,41.80
2022-12-16T19:22:18.118Z,41.20
2022-12-16T19:25:03.624Z,37.30
2022-12-16T19:27:49.128Z,37.10
2022-12-16T19:30:36.228Z,37.73
2022-12-16T19:33:23.573Z,39.00
2022-12-16T19:36:09.061Z,41.23
2022-12-16T19:38:55.045Z,35.33
2022-12-16T19:41:42.063Z,48.77
2022-12-16T19:44:27.427Z,41.83
2022-12-16T19:47:12.871Z,38.87
2022-12-16T19:49:59.710Z,40.00
2022-12-16T19:52:45.152Z,45.97
2022-12-16T19:55:31.696Z,41.30
2022-12-16T19:58:17.064Z,40.73
2022-12-16T20:01:02.480Z,45.83
2022-12-16T20:03:48.818Z,50.27
2022-12-16T20:06:35.911Z,49.87
2022-12-16T20:09:21.476Z,43.20
2022-12-16T20:12:06.873Z,42.87
2022-12-16T20:14:52.265Z,67.57
2022-12-16T20:17:38.737Z,61.67
2022-12-16T20:20:24.485Z,57.33
2022-12-16T20:23:24.750Z,66.20
2022-12-16T20:26:13.820Z,68.10
2022-12-16T20:28:59.228Z,73.57
2022-12-16T20:31:45.210Z,68.53
2022-12-16T20:34:30.728Z,64.00
2022-12-16T20:37:16.239Z,68.03
2022-12-16T20:40:08.399Z,54.40
2022-12-16T20:42:54.975Z,58.60
2022-12-16T20:45:41.842Z,48.67
2022-12-16T20:48:32.181Z,54.03
2022-12-16T20:51:25.860Z,51.00
2022-12-16T20:54:12.149Z,54.23
2022-12-16T20:57:12.508Z,52.10
2022-12-16T20:59:58.546Z,52.07
2022-12-16T21:02:44.081Z,49.70
2022-12-16T21:05:29.533Z,57.00
2022-12-16T21:08:14.983Z,54.37
2022-12-16T21:11:00.497Z,50.23
2022-12-16T21:13:47.715Z,53.37
2022-12-16T21:16:33.263Z,48.80
2022-12-16T21:19:18.725Z,47.27
2022-12-16T21:22:04.243Z,44.07
2022-12-16T21:24:49.946Z,46.60
2022-12-16T21:27:35.380Z,44.57
2022-12-16T21:30:22.603Z,44.97
2022-12-16T21:33:09.215Z,45.83
2022-12-16T21:35:56.028Z,49.30
2022-12-16T21:38:41.554Z,45.73
2022-12-16T21:41:32.289Z,46.93
2022-12-16T21:44:17.611Z,45.77
2022-12-16T21:47:04.360Z,40.60
2022-12-16T21:49:49.876Z,43.70
2022-12-16T21:52:35.153Z,48.43
2022-12-16T21:55:20.720Z,44.37
2022-12-16T21:58:06.132Z,45.60
2022-12-16T22:00:53.587Z,49.23
2022-12-16T22:03:56.916Z,41.40
2022-12-16T22:09:47.733Z,39.60
2022-12-16T22:12:33.118Z,42.30
2022-12-16T22:15:18.618Z,43.80
2022-12-16T22:18:04.022Z,42.20
2022-12-16T22:20:47.172Z,37.77
2022-12-16T22:23:32.708Z,41.10
2022-12-16T22:26:19.304Z,41.00
2022-12-16T22:29:04.816Z,39.43
2022-12-16T22:31:50.193Z,43.20
2022-12-16T22:34:36.083Z,42.13
2022-12-16T22:36:21.966Z,43.93
2022-12-16T22:37:31.158Z,35.43
2022-12-16T22:40:16.569Z,50.53
2022-12-16T22:43:01.985Z,39.60
2022-12-16T22:45:47.660Z,49.03
2022-12-16T22:48:33.128Z,46.60
2022-12-16T22:51:18.632Z,45.33
2022-12-16T22:54:06.893Z,39.60
2022-12-16T22:56:52.225Z,46.90
2022-12-16T22:59:37.716Z,41.67
2022-12-16T23:02:23.081Z,41.60
2022-12-16T23:05:08.528Z,45.50
2022-12-16T23:08:06.327Z,42.83
2022-12-16T23:10:53.013Z,46.03
2022-12-16T23:13:44.946Z,44.47
2022-12-16T23:16:30.537Z,41.37
2022-12-16T23:19:16.281Z,38.67
2022-12-16T23:22:01.987Z,42.93
2022-12-16T23:24:47.462Z,42.03
2022-12-16T23:27:34.263Z,36.87
2022-12-16T23:30:19.857Z,38.60
2022-12-16T23:33:04.451Z,38.47
2022-12-16T23:35:49.948Z,32.60
2022-12-16T23:38:35.320Z,36.93
2022-12-16T23:41:20.836Z,38.37
2022-12-16T23:44:07.353Z,40.90
2022-12-16T23:46:53.434Z,36.10
2022-12-16T23:49:38.928Z,35.63
2022-12-16T23:52:24.359Z,36.10
2022-12-16T23:55:09.716Z,31.90
2022-12-16T23:57:56.095Z,32.60
